createdAt,value
2019-02-15T00:00:14.284Z,0.00
2019-02-15T00:01:14.210Z,0.00
2019-02-15T00:02:14.160Z,0.00
2019-02-15T00:03:14.078Z,0.00
2019-02-15T00:04:14.020Z,0.00
2019-02-15T00:05:13.922Z,0.00
2019-02-15T00:06:13.861Z,0.00
2019-02-15T00:07:13.787Z,0.00
2019-02-15T00:08:13.714Z,0.00
2019-02-15T00:09:13.646Z,0.00
2019-02-15T00:10:13.556Z,0.00
2019-02-15T00:11:13.478Z,0.00
2019-02-15T00:12:13.421Z,0.00
2019-02-15T00:13:13.952Z,0.00
2019-02-15T00:14:13.287Z,0.00
2019-02-15T00:15:13.189Z,0.00
2019-02-15T00:16:13.114Z,0.00
2019-02-15T00:17:13.043Z,0.00
2019-02-15T00:18:12.980Z,0.00
2019-02-15T00:19:12.908Z,0.00
2019-02-15T00:20:12.830Z,0.00
2019-02-15T00:21:12.750Z,0.00
2019-02-15T00:22:12.696Z,0.00
2019-02-15T00:23:12.618Z,0.00
2019-02-15T00:24:12.539Z,0.00
2019-02-15T00:25:12.520Z,0.00
2019-02-15T00:26:12.382Z,0.00
2019-02-15T00:27:12.308Z,0.00
2019-02-15T00:28:12.230Z,0.00
2019-02-15T00:29:12.159Z,0.00
2019-02-15T00:30:12.095Z,0.00
2019-02-15T00:31:12.021Z,0.00
2019-02-15T00:32:11.949Z,0.00
2019-02-15T00:33:11.885Z,0.00
2019-02-15T00:34:11.786Z,0.00
2019-02-15T00:35:11.722Z,0.00
2019-02-15T00:36:11.653Z,0.00
2019-02-15T00:37:11.577Z,0.00
2019-02-15T00:38:11.502Z,0.00
2019-02-15T00:39:11.420Z,0.00
2019-02-15T00:40:11.348Z,0.00
2019-02-15T00:41:11.276Z,0.00
2019-02-15T00:42:11.215Z,0.00
2019-02-15T00:43:11.136Z,0.00
2019-02-15T00:44:11.064Z,0.00
2019-02-15T00:45:10.994Z,0.00
2019-02-15T00:46:10.900Z,0.00
2019-02-15T00:47:10.845Z,0.00
2019-02-15T00:48:10.756Z,0.00
2019-02-15T00:49:10.684Z,0.00
2019-02-15T00:50:10.619Z,0.00
2019-02-15T00:51:10.586Z,0.00
2019-02-15T00:52:10.459Z,0.00
2019-02-15T00:53:10.393Z,0.00
2019-02-15T00:54:10.331Z,0.00
2019-02-15T00:55:10.245Z,0.00
2019-02-15T00:56:10.179Z,0.00
2019-02-15T00:57:10.096Z,0.00
2019-02-15T00:58:10.014Z,0.00
2019-02-15T00:59:09.942Z,0.00
2019-02-15T01:00:09.866Z,0.00
2019-02-15T01:01:09.798Z,0.00
2019-02-15T01:02:09.730Z,0.00
2019-02-15T01:03:09.654Z,0.00
2019-02-15T01:04:09.587Z,0.00
2019-02-15T01:05:09.510Z,0.00
2019-02-15T01:06:09.424Z,0.00
2019-02-15T01:07:09.348Z,0.00
2019-02-15T01:08:09.283Z,0.00
2019-02-15T01:09:09.210Z,0.00
2019-02-15T01:10:09.122Z,0.00
2019-02-15T01:11:09.046Z,0.00
2019-02-15T01:12:08.976Z,0.00
2019-02-15T01:13:08.898Z,0.00
2019-02-15T01:14:08.851Z,0.00
2019-02-15T01:15:08.803Z,0.00
2019-02-15T01:16:08.683Z,0.00
2019-02-15T01:17:08.609Z,0.00
2019-02-15T01:18:08.543Z,0.00
2019-02-15T01:19:08.473Z,0.00
2019-02-15T01:20:08.395Z,0.00
2019-02-15T01:21:08.319Z,0.00
2019-02-15T01:22:08.241Z,0.00
2019-02-15T01:23:08.162Z,0.00
2019-02-15T01:24:08.098Z,0.00
2019-02-15T01:25:08.026Z,0.00
2019-02-15T01:26:07.941Z,0.00
2019-02-15T01:27:07.862Z,0.00
2019-02-15T01:28:07.786Z,0.00
2019-02-15T01:29:07.716Z,0.00
2019-02-15T01:30:07.650Z,0.00
2019-02-15T01:31:07.578Z,0.00
2019-02-15T01:32:07.504Z,0.00
2019-02-15T01:33:07.430Z,0.00
2019-02-15T01:34:07.359Z,0.00
2019-02-15T01:35:07.268Z,0.00
2019-02-15T01:36:07.195Z,0.00
2019-02-15T01:37:07.174Z,0.00
2019-02-15T01:38:07.059Z,0.00
2019-02-15T01:39:06.980Z,0.00
2019-02-15T01:40:06.896Z,0.00
2019-02-15T01:41:06.823Z,0.00
2019-02-15T01:42:06.755Z,0.00
2019-02-15T01:43:06.678Z,0.00
2019-02-15T01:44:06.608Z,0.00
2019-02-15T01:45:06.532Z,0.00
2019-02-15T01:46:06.444Z,0.00
2019-02-15T01:47:06.370Z,0.00
2019-02-15T01:48:06.296Z,0.00
2019-02-15T01:49:06.220Z,0.00
2019-02-15T01:50:06.158Z,0.00
2019-02-15T01:51:06.079Z,0.00
2019-02-15T01:52:06.005Z,0.00
2019-02-15T01:53:05.930Z,0.00
2019-02-15T01:54:05.846Z,0.00
2019-02-15T01:55:05.768Z,0.00
2019-02-15T01:56:05.706Z,0.00
2019-02-15T01:57:05.634Z,0.00
2019-02-15T01:58:05.548Z,0.00
2019-02-15T01:59:05.470Z,0.00
2019-02-15T02:00:05.417Z,0.00
2019-02-15T02:01:05.321Z,0.00
2019-02-15T02:02:05.254Z,0.00
2019-02-15T02:03:05.175Z,0.00
2019-02-15T02:04:05.105Z,0.00
2019-02-15T02:05:05.027Z,0.00
2019-02-15T02:06:04.942Z,0.00
2019-02-15T02:07:04.866Z,0.00
2019-02-15T02:08:04.796Z,0.00
2019-02-15T02:09:04.722Z,0.00
2019-02-15T02:10:04.655Z,0.00
2019-02-15T02:11:04.578Z,0.00
2019-02-15T02:12:04.496Z,0.00
2019-02-15T02:13:04.419Z,0.00
2019-02-15T02:14:04.359Z,0.00
2019-02-15T02:15:04.295Z,0.00
2019-02-15T02:16:04.205Z,0.00
2019-02-15T02:17:04.135Z,0.00
2019-02-15T02:18:04.040Z,0.00
2019-02-15T02:19:03.987Z,0.00
2019-02-15T02:20:03.909Z,0.00
2019-02-15T02:21:03.836Z,0.00
2019-02-15T02:22:03.748Z,0.00
2019-02-15T02:23:03.671Z,0.00
2019-02-15T02:24:03.595Z,0.00
2019-02-15T02:25:03.526Z,0.00
2019-02-15T02:26:03.457Z,0.00
2019-02-15T02:27:03.393Z,0.00
2019-02-15T02:28:03.296Z,0.00
2019-02-15T02:29:03.219Z,0.00
2019-02-15T02:30:03.166Z,0.00
2019-02-15T02:31:03.079Z,0.00
2019-02-15T02:32:03.010Z,0.00
2019-02-15T02:33:02.933Z,0.00
2019-02-15T02:34:02.852Z,0.00
2019-02-15T02:35:02.773Z,0.00
2019-02-15T02:36:02.715Z,0.00
2019-02-15T02:37:02.633Z,0.00
2019-02-15T02:38:02.560Z,0.00
2019-02-15T02:39:02.485Z,0.00
2019-02-15T02:40:02.414Z,0.00
2019-02-15T02:41:02.335Z,0.00
2019-02-15T02:42:02.246Z,0.00
2019-02-15T02:43:02.169Z,0.00
2019-02-15T02:44:02.119Z,0.00
2019-02-15T02:45:02.086Z,0.00
2019-02-15T02:46:01.954Z,0.00
2019-02-15T02:47:01.870Z,0.00
2019-02-15T02:48:01.798Z,0.00
2019-02-15T02:49:01.722Z,0.00
2019-02-15T02:50:01.658Z,0.00
2019-02-15T02:51:01.582Z,0.00
2019-02-15T02:52:01.515Z,0.00
2019-02-15T02:53:01.420Z,0.00
2019-02-15T02:54:01.362Z,0.00
2019-02-15T02:55:01.313Z,0.00
2019-02-15T02:56:01.208Z,0.00
2019-02-15T02:57:01.135Z,0.00
2019-02-15T02:58:01.051Z,0.00
2019-02-15T02:59:01.015Z,0.00
2019-02-15T03:00:00.908Z,0.00
2019-02-15T03:01:00.832Z,0.00
2019-02-15T03:02:00.793Z,0.00
2019-02-15T03:03:00.669Z,0.00
2019-02-15T03:04:00.598Z,0.00
2019-02-15T03:05:00.521Z,0.00
2019-02-15T03:06:00.453Z,0.00
2019-02-15T03:07:00.376Z,0.00
2019-02-15T03:08:00.349Z,0.00
2019-02-15T03:09:00.224Z,0.00
2019-02-15T03:10:00.299Z,0.00
2019-02-15T03:11:00.063Z,0.00
2019-02-15T03:11:59.982Z,0.00
2019-02-15T03:12:59.910Z,0.00
2019-02-15T03:14:10.731Z,0.00
2019-02-15T03:14:59.770Z,0.00
2019-02-15T03:15:59.681Z,0.00
2019-02-15T03:16:59.611Z,0.00
2019-02-15T03:17:59.545Z,0.00
2019-02-15T03:18:59.473Z,0.00
2019-02-15T03:19:59.397Z,0.00
2019-02-15T03:20:59.327Z,0.00
2019-02-15T03:21:59.245Z,0.00
2019-02-15T03:22:59.180Z,0.00
2019-02-15T03:23:59.089Z,0.00
2019-02-15T03:24:59.011Z,0.00
2019-02-15T03:25:58.930Z,0.00
2019-02-15T03:26:58.848Z,0.00
2019-02-15T03:27:58.775Z,0.00
2019-02-15T03:28:58.703Z,0.00
2019-02-15T03:29:58.639Z,0.00
2019-02-15T03:30:58.562Z,0.00
2019-02-15T03:31:58.475Z,0.00
2019-02-15T03:32:58.402Z,0.00
2019-02-15T03:33:58.331Z,0.00
2019-02-15T03:34:58.263Z,0.00
2019-02-15T03:35:58.185Z,0.00
2019-02-15T03:36:58.108Z,0.00
2019-02-15T03:37:58.018Z,0.00
2019-02-15T03:38:57.949Z,0.00
2019-02-15T03:39:57.869Z,0.00
2019-02-15T03:40:57.793Z,0.00
2019-02-15T03:41:57.735Z,0.00
2019-02-15T03:42:57.657Z,0.00
2019-02-15T03:43:57.592Z,0.00
2019-02-15T03:44:57.512Z,0.00
2019-02-15T03:45:57.420Z,0.00
2019-02-15T03:46:57.336Z,0.00
2019-02-15T03:47:57.276Z,0.00
2019-02-15T03:48:57.202Z,0.00
2019-02-15T03:49:57.109Z,0.00
2019-02-15T03:50:57.116Z,0.00
2019-02-15T03:51:56.960Z,0.00
2019-02-15T03:52:56.910Z,0.00
2019-02-15T03:53:56.819Z,0.00
2019-02-15T03:54:56.747Z,0.00
2019-02-15T03:55:56.668Z,0.00
2019-02-15T03:56:56.624Z,0.00
2019-02-15T03:57:56.514Z,0.00
2019-02-15T03:58:56.439Z,0.00
2019-02-15T03:59:56.378Z,0.00
2019-02-15T04:00:56.278Z,0.00
2019-02-15T04:01:56.220Z,0.00
2019-02-15T04:02:56.140Z,0.00
2019-02-15T04:03:56.048Z,0.00
2019-02-15T04:04:55.975Z,0.00
2019-02-15T04:05:55.913Z,0.00
2019-02-15T04:06:55.840Z,0.00
2019-02-15T04:07:55.762Z,0.00
2019-02-15T04:08:55.685Z,0.00
2019-02-15T04:09:55.597Z,0.00
2019-02-15T04:10:55.523Z,0.00
2019-02-15T04:11:55.448Z,0.00
2019-02-15T04:12:55.383Z,0.00
2019-02-15T04:13:55.314Z,0.00
2019-02-15T04:14:55.229Z,0.00
2019-02-15T04:15:55.155Z,0.00
2019-02-15T04:16:55.079Z,0.00
2019-02-15T04:17:54.995Z,0.00
2019-02-15T04:18:54.922Z,0.00
2019-02-15T04:19:54.852Z,0.00
2019-02-15T04:20:54.776Z,0.00
2019-02-15T04:21:54.791Z,0.00
2019-02-15T04:22:54.620Z,0.00
2019-02-15T04:23:54.540Z,0.00
2019-02-15T04:24:54.478Z,0.00
2019-02-15T04:25:54.399Z,0.00
2019-02-15T04:26:54.326Z,0.00
2019-02-15T04:27:54.237Z,0.00
2019-02-15T04:28:54.164Z,0.00
2019-02-15T04:29:54.097Z,0.00
2019-02-15T04:30:54.023Z,0.00
2019-02-15T04:31:53.976Z,0.00
2019-02-15T04:32:53.868Z,0.00
2019-02-15T04:33:53.827Z,0.00
2019-02-15T04:34:53.701Z,0.00
2019-02-15T04:35:53.639Z,0.00
2019-02-15T04:36:53.579Z,0.00
2019-02-15T04:37:53.479Z,0.00
2019-02-15T04:38:53.402Z,0.00
2019-02-15T04:39:53.324Z,0.00
2019-02-15T04:40:53.246Z,0.00
2019-02-15T04:41:53.200Z,0.00
2019-02-15T04:42:53.113Z,0.00
2019-02-15T04:43:53.033Z,0.00
2019-02-15T04:44:52.958Z,0.00
2019-02-15T04:45:52.877Z,0.00
2019-02-15T04:46:52.791Z,0.00
2019-02-15T04:47:52.719Z,0.00
2019-02-15T04:48:52.662Z,0.00
2019-02-15T04:49:52.580Z,0.00
2019-02-15T04:50:52.504Z,0.00
2019-02-15T04:51:52.411Z,0.00
2019-02-15T04:52:52.344Z,0.00
2019-02-15T04:53:52.274Z,0.00
2019-02-15T04:54:52.200Z,0.00
2019-02-15T04:55:52.122Z,0.00
2019-02-15T04:56:52.047Z,0.00
2019-02-15T04:57:51.957Z,0.00
2019-02-15T04:58:51.882Z,0.00
2019-02-15T04:59:51.817Z,0.00
2019-02-15T05:00:51.733Z,0.00
2019-02-15T05:01:51.660Z,0.00
2019-02-15T05:02:51.584Z,0.00
2019-02-15T05:03:51.511Z,0.00
2019-02-15T05:04:51.439Z,0.00
2019-02-15T05:05:51.348Z,0.00
2019-02-15T05:06:51.271Z,0.00
2019-02-15T05:07:51.214Z,0.00
2019-02-15T05:08:51.134Z,0.00
2019-02-15T05:09:51.046Z,0.00
2019-02-15T05:10:50.967Z,0.00
2019-02-15T05:11:50.893Z,0.00
2019-02-15T05:12:50.826Z,0.00
2019-02-15T05:13:50.747Z,0.00
2019-02-15T05:14:53.043Z,0.00
2019-02-15T05:15:50.601Z,0.00
2019-02-15T05:16:50.521Z,0.00
2019-02-15T05:17:50.456Z,0.00
2019-02-15T05:18:50.358Z,0.00
2019-02-15T05:19:50.307Z,0.00
2019-02-15T05:20:50.207Z,0.00
2019-02-15T05:21:50.146Z,0.00
2019-02-15T05:22:50.064Z,0.00
2019-02-15T05:23:49.977Z,0.00
2019-02-15T05:24:49.904Z,0.00
2019-02-15T05:25:49.834Z,0.00
2019-02-15T05:26:49.756Z,0.00
2019-02-15T05:27:49.678Z,0.00
2019-02-15T05:28:49.606Z,0.00
2019-02-15T05:29:49.516Z,0.00
2019-02-15T05:30:49.440Z,0.00
2019-02-15T05:31:49.383Z,0.00
2019-02-15T05:32:49.298Z,0.00
2019-02-15T05:33:49.221Z,0.00
2019-02-15T05:34:49.140Z,0.00
2019-02-15T05:35:49.060Z,0.00
2019-02-15T05:36:48.983Z,0.00
2019-02-15T05:37:48.914Z,0.00
2019-02-15T05:38:48.841Z,0.00
2019-02-15T05:39:48.759Z,0.00
2019-02-15T05:40:48.676Z,0.00
2019-02-15T05:41:48.616Z,0.00
2019-02-15T05:42:48.535Z,0.00
2019-02-15T05:43:48.455Z,0.00
2019-02-15T05:44:48.400Z,0.00
2019-02-15T05:45:48.296Z,0.00
2019-02-15T05:46:48.225Z,0.00
2019-02-15T05:47:48.141Z,0.00
2019-02-15T05:48:48.067Z,0.00
2019-02-15T05:49:47.998Z,0.00
2019-02-15T05:50:47.925Z,0.00
2019-02-15T05:51:47.851Z,0.00
2019-02-15T05:52:47.803Z,0.00
2019-02-15T05:53:47.681Z,0.00
2019-02-15T05:54:47.624Z,0.00
2019-02-15T05:55:47.559Z,0.00
2019-02-15T05:56:47.474Z,0.00
2019-02-15T05:57:47.393Z,0.00
2019-02-15T05:58:47.302Z,0.00
2019-02-15T05:59:47.227Z,0.00
2019-02-15T06:00:47.150Z,0.00
2019-02-15T06:01:47.124Z,0.00
2019-02-15T06:02:47.007Z,0.00
2019-02-15T06:03:47.305Z,0.00
2019-02-15T06:04:46.860Z,0.00
2019-02-15T06:05:46.776Z,0.00
2019-02-15T06:06:46.693Z,0.00
2019-02-15T06:07:46.623Z,0.00
2019-02-15T06:08:46.546Z,0.00
2019-02-15T06:09:46.480Z,0.00
2019-02-15T06:10:46.413Z,0.00
2019-02-15T06:11:46.323Z,0.00
2019-02-15T06:12:46.245Z,0.00
2019-02-15T06:13:46.194Z,0.00
2019-02-15T06:14:46.100Z,0.00
2019-02-15T06:15:46.028Z,0.00
2019-02-15T06:16:45.947Z,0.00
2019-02-15T06:17:45.859Z,0.00
2019-02-15T06:18:45.785Z,0.00
2019-02-15T06:19:45.707Z,0.00
2019-02-15T06:20:45.636Z,0.00
2019-02-15T06:21:45.594Z,0.00
2019-02-15T06:22:45.495Z,0.00
2019-02-15T06:23:45.415Z,0.00
2019-02-15T06:24:45.339Z,0.00
2019-02-15T06:25:45.251Z,0.00
2019-02-15T06:26:45.229Z,0.00
2019-02-15T06:27:45.114Z,0.00
2019-02-15T06:28:45.056Z,0.00
2019-02-15T06:29:44.962Z,0.00
2019-02-15T06:30:44.899Z,0.00
2019-02-15T06:31:44.794Z,0.00
2019-02-15T06:32:44.724Z,4.00
2019-02-15T06:33:44.660Z,4.00
2019-02-15T06:34:44.579Z,4.00
2019-02-15T06:35:44.490Z,4.00
2019-02-15T06:36:44.432Z,4.00
2019-02-15T06:37:44.352Z,0.00
2019-02-15T06:38:44.273Z,4.00
2019-02-15T06:39:44.215Z,4.00
2019-02-15T06:40:44.124Z,4.00
2019-02-15T06:41:44.071Z,4.00
2019-02-15T06:42:43.955Z,4.00
2019-02-15T06:43:43.890Z,4.00
2019-02-15T06:44:43.815Z,4.00
2019-02-15T06:45:43.732Z,4.00
2019-02-15T06:46:43.652Z,8.00
2019-02-15T06:47:43.598Z,8.00
2019-02-15T06:48:43.521Z,8.00
2019-02-15T06:49:43.440Z,8.00
2019-02-15T06:50:43.367Z,12.00
2019-02-15T06:51:43.291Z,12.00
2019-02-15T06:52:43.208Z,12.00
2019-02-15T06:53:43.122Z,20.00
2019-02-15T06:54:43.053Z,20.00
2019-02-15T06:55:42.967Z,20.00
2019-02-15T06:56:42.892Z,24.00
2019-02-15T06:57:42.864Z,28.00
2019-02-15T06:58:45.577Z,28.00
2019-02-15T06:59:42.664Z,36.00
2019-02-15T07:00:42.588Z,40.00
2019-02-15T07:01:42.522Z,40.00
2019-02-15T07:02:42.450Z,48.00
2019-02-15T07:03:42.379Z,48.00
2019-02-15T07:04:42.300Z,56.00
2019-02-15T07:05:42.210Z,56.00
2019-02-15T07:06:42.130Z,60.00
2019-02-15T07:07:42.075Z,64.00
2019-02-15T07:08:42.011Z,72.00
2019-02-15T07:09:41.904Z,76.00
2019-02-15T07:10:41.829Z,84.00
2019-02-15T07:11:41.752Z,88.00
2019-02-15T07:12:41.676Z,92.00
2019-02-15T07:13:41.613Z,100.00
2019-02-15T07:14:41.532Z,104.00
2019-02-15T07:15:41.453Z,108.00
2019-02-15T07:16:41.438Z,112.00
2019-02-15T07:17:41.321Z,120.00
2019-02-15T07:18:41.239Z,128.00
2019-02-15T07:19:41.156Z,136.00
2019-02-15T07:20:41.079Z,144.00
2019-02-15T07:21:41.000Z,156.00
2019-02-15T07:22:40.919Z,168.00
2019-02-15T07:23:40.848Z,176.00
2019-02-15T07:24:40.766Z,180.00
2019-02-15T07:25:40.702Z,192.00
2019-02-15T07:26:40.626Z,200.00
2019-02-15T07:27:40.555Z,208.00
2019-02-15T07:28:40.478Z,212.00
2019-02-15T07:29:40.386Z,220.00
2019-02-15T07:30:40.320Z,232.00
2019-02-15T07:31:40.255Z,240.00
2019-02-15T07:32:40.173Z,252.00
2019-02-15T07:33:40.084Z,256.00
2019-02-15T07:34:40.011Z,260.00
2019-02-15T07:35:39.932Z,260.00
2019-02-15T07:36:39.860Z,276.00
2019-02-15T07:37:39.798Z,272.00
2019-02-15T07:38:39.714Z,284.00
2019-02-15T07:39:39.632Z,304.00
2019-02-15T07:40:39.557Z,308.00
2019-02-15T07:41:39.494Z,312.00
2019-02-15T07:42:39.422Z,324.00
2019-02-15T07:43:39.341Z,324.00
2019-02-15T07:44:39.268Z,328.00
2019-02-15T07:45:42.916Z,336.00
2019-02-15T07:46:39.115Z,344.00
2019-02-15T07:47:39.036Z,344.00
2019-02-15T07:48:38.969Z,360.00
2019-02-15T07:49:38.877Z,368.00
2019-02-15T07:50:38.798Z,396.00
2019-02-15T07:51:38.725Z,408.00
2019-02-15T07:52:38.647Z,420.00
2019-02-15T07:53:38.585Z,428.00
2019-02-15T07:54:38.513Z,420.00
2019-02-15T07:55:38.437Z,436.00
2019-02-15T07:56:38.360Z,444.00
2019-02-15T07:57:38.268Z,420.00
2019-02-15T07:58:38.197Z,432.00
2019-02-15T07:59:38.122Z,452.00
2019-02-15T08:00:38.052Z,460.00
2019-02-15T08:01:37.987Z,484.00
2019-02-15T08:02:37.910Z,472.00
2019-02-15T08:03:37.872Z,472.00
2019-02-15T08:04:37.743Z,496.00
2019-02-15T08:05:37.690Z,492.00
2019-02-15T08:06:37.608Z,500.00
2019-02-15T08:07:37.549Z,512.00
2019-02-15T08:08:37.456Z,532.00
2019-02-15T08:09:37.382Z,540.00
2019-02-15T08:10:39.351Z,532.00
2019-02-15T08:11:37.215Z,536.00
2019-02-15T08:12:37.149Z,548.00
2019-02-15T08:13:37.085Z,564.00
2019-02-15T08:14:37.003Z,592.00
2019-02-15T08:15:36.928Z,612.00
2019-02-15T08:16:38.699Z,644.00
2019-02-15T08:17:36.762Z,648.00
2019-02-15T08:18:36.693Z,596.00
2019-02-15T08:19:36.634Z,640.00
2019-02-15T08:20:36.586Z,684.00
2019-02-15T08:21:36.469Z,700.00
2019-02-15T08:22:36.393Z,680.00
2019-02-15T08:23:36.314Z,696.00
2019-02-15T08:24:36.237Z,728.00
2019-02-15T08:25:36.172Z,776.00
2019-02-15T08:26:36.103Z,736.00
2019-02-15T08:27:36.027Z,760.00
2019-02-15T08:28:35.946Z,792.00
2019-02-15T08:29:35.862Z,780.00
2019-02-15T08:30:35.815Z,788.00
2019-02-15T08:31:35.711Z,796.00
2019-02-15T08:32:35.639Z,820.00
2019-02-15T08:33:35.577Z,856.00
2019-02-15T08:34:35.499Z,856.00
2019-02-15T08:35:35.412Z,812.00
2019-02-15T08:36:35.335Z,816.00
2019-02-15T08:37:35.282Z,884.00
2019-02-15T08:38:35.196Z,892.00
2019-02-15T08:39:35.126Z,884.00
2019-02-15T08:40:35.051Z,884.00
2019-02-15T08:41:34.962Z,904.00
2019-02-15T08:42:34.883Z,908.00
2019-02-15T08:43:34.834Z,920.00
2019-02-15T08:44:34.745Z,948.00
2019-02-15T08:45:34.663Z,940.00
2019-02-15T08:46:34.587Z,992.00
2019-02-15T08:47:34.509Z,936.00
2019-02-15T08:48:36.155Z,992.00
2019-02-15T08:49:34.396Z,996.00
2019-02-15T08:50:34.296Z,1004.00
2019-02-15T08:51:34.207Z,1020.00
2019-02-15T08:52:34.134Z,1028.00
2019-02-15T08:53:34.068Z,1072.00
2019-02-15T08:54:33.989Z,1136.00
2019-02-15T08:55:33.921Z,1108.00
2019-02-15T08:56:33.840Z,1080.00
2019-02-15T08:57:33.760Z,1136.00
2019-02-15T08:58:33.705Z,1144.00
2019-02-15T08:59:33.629Z,1180.00
2019-02-15T09:00:33.530Z,1164.00
2019-02-15T09:01:33.469Z,1148.00
2019-02-15T09:02:33.394Z,1160.00
2019-02-15T09:03:33.319Z,1192.00
2019-02-15T09:04:33.244Z,1164.00
2019-02-15T09:05:33.155Z,1152.00
2019-02-15T09:06:33.087Z,1152.00
2019-02-15T09:07:33.052Z,1160.00
2019-02-15T09:08:32.944Z,1232.00
2019-02-15T09:09:32.855Z,1228.00
2019-02-15T09:10:32.783Z,1244.00
2019-02-15T09:11:32.709Z,1268.00
2019-02-15T09:12:32.634Z,1304.00
2019-02-15T09:13:32.576Z,1304.00
2019-02-15T09:14:32.494Z,1336.00
2019-02-15T09:15:32.424Z,1364.00
2019-02-15T09:16:32.339Z,1364.00
2019-02-15T09:17:32.259Z,1360.00
2019-02-15T09:18:32.177Z,1424.00
2019-02-15T09:19:32.106Z,1504.00
2019-02-15T09:20:32.031Z,1516.00
2019-02-15T09:21:31.969Z,1516.00
2019-02-15T09:22:31.888Z,1516.00
2019-02-15T09:23:31.801Z,1536.00
2019-02-15T09:24:31.730Z,1460.00
2019-02-15T09:25:31.664Z,1432.00
2019-02-15T09:26:31.598Z,1488.00
2019-02-15T09:27:31.512Z,1484.00
2019-02-15T09:28:31.442Z,1440.00
2019-02-15T09:29:31.353Z,1456.00
2019-02-15T09:30:31.277Z,1472.00
2019-02-15T09:31:31.202Z,1584.00
2019-02-15T09:32:31.129Z,1628.00
2019-02-15T09:33:31.077Z,1596.00
2019-02-15T09:34:33.019Z,1596.00
2019-02-15T09:35:30.916Z,1660.00
2019-02-15T09:36:30.854Z,1612.00
2019-02-15T09:37:30.749Z,1512.00
2019-02-15T09:38:30.679Z,1528.00
2019-02-15T09:39:30.617Z,1540.00
2019-02-15T09:40:30.548Z,1500.00
2019-02-15T09:41:30.453Z,1556.00
2019-02-15T09:42:30.407Z,1520.00
2019-02-15T09:43:30.308Z,1584.00
2019-02-15T09:44:30.244Z,1596.00
2019-02-15T09:45:30.160Z,1540.00
2019-02-15T09:46:30.090Z,1604.00
2019-02-15T09:47:30.000Z,1588.00
2019-02-15T09:48:29.927Z,1636.00
2019-02-15T09:49:29.861Z,1632.00
2019-02-15T09:50:29.789Z,1668.00
2019-02-15T09:51:29.742Z,1704.00
2019-02-15T09:52:29.644Z,1620.00
2019-02-15T09:53:29.550Z,1700.00
2019-02-15T09:54:29.473Z,1744.00
2019-02-15T09:55:29.409Z,1680.00
2019-02-15T09:56:29.338Z,1688.00
2019-02-15T09:57:29.246Z,1688.00
2019-02-15T09:58:29.173Z,1680.00
2019-02-15T09:59:29.099Z,1580.00
2019-02-15T10:00:29.021Z,1560.00
2019-02-15T10:01:28.970Z,1596.00
2019-02-15T10:02:28.890Z,1660.00
2019-02-15T10:03:28.814Z,1748.00
2019-02-15T10:04:28.740Z,1804.00
2019-02-15T10:05:28.658Z,1788.00
2019-02-15T10:06:28.589Z,1700.00
2019-02-15T10:07:28.514Z,1676.00
2019-02-15T10:08:28.424Z,1688.00
2019-02-15T10:09:28.363Z,1772.00
2019-02-15T10:10:28.288Z,1684.00
2019-02-15T10:11:28.229Z,1732.00
2019-02-15T10:12:28.124Z,1752.00
2019-02-15T10:13:28.088Z,1752.00
2019-02-15T10:14:28.043Z,1760.00
2019-02-15T10:15:27.911Z,1756.00
2019-02-15T10:16:30.739Z,1704.00
2019-02-15T10:17:27.751Z,1768.00
2019-02-15T10:18:27.667Z,1800.00
2019-02-15T10:19:27.595Z,1820.00
2019-02-15T10:20:27.517Z,1796.00
2019-02-15T10:21:27.501Z,1952.00
2019-02-15T10:22:27.390Z,1912.00
2019-02-15T10:23:27.306Z,1828.00
2019-02-15T10:24:27.236Z,1788.00
2019-02-15T10:25:27.140Z,1720.00
2019-02-15T10:26:27.071Z,1660.00
2019-02-15T10:27:27.006Z,1788.00
2019-02-15T10:28:26.934Z,1908.00
2019-02-15T10:29:26.846Z,2028.00
2019-02-15T10:30:26.767Z,2144.00
2019-02-15T10:31:26.696Z,2064.00
2019-02-15T10:32:26.622Z,1944.00
2019-02-15T10:33:26.553Z,1908.00
2019-02-15T10:34:26.487Z,1872.00
2019-02-15T10:35:26.407Z,1980.00
2019-02-15T10:36:26.335Z,2028.00
2019-02-15T10:37:26.248Z,1900.00
2019-02-15T10:38:26.174Z,1928.00
2019-02-15T10:39:26.097Z,1908.00
2019-02-15T10:40:26.023Z,1896.00
2019-02-15T10:41:25.961Z,1916.00
2019-02-15T10:42:25.885Z,1880.00
2019-02-15T10:43:25.801Z,1912.00
2019-02-15T10:44:26.262Z,1860.00
2019-02-15T10:45:25.666Z,1824.00
2019-02-15T10:46:25.588Z,1756.00
2019-02-15T10:47:25.563Z,1824.00
2019-02-15T10:48:25.435Z,1864.00
2019-02-15T10:49:25.354Z,1968.00
2019-02-15T10:50:25.279Z,2076.00
2019-02-15T10:51:25.221Z,2108.00
2019-02-15T10:52:25.142Z,2112.00
2019-02-15T10:53:25.055Z,2056.00
2019-02-15T10:54:25.009Z,2076.00
2019-02-15T10:55:24.916Z,2072.00
2019-02-15T10:56:24.835Z,2088.00
2019-02-15T10:57:24.776Z,2036.00
2019-02-15T10:58:26.409Z,2040.00
2019-02-15T10:59:24.612Z,2056.00
2019-02-15T11:00:24.537Z,2144.00
2019-02-15T11:01:24.480Z,2180.00
2019-02-15T11:02:24.402Z,2204.00
2019-02-15T11:03:24.333Z,2228.00
2019-02-15T11:04:24.253Z,2232.00
2019-02-15T11:05:24.166Z,2176.00
2019-02-15T11:06:26.694Z,2164.00
2019-02-15T11:07:24.019Z,2300.00
2019-02-15T11:08:23.968Z,2592.00
2019-02-15T11:09:23.882Z,2732.00
2019-02-15T11:10:23.810Z,2688.00
2019-02-15T11:11:23.735Z,2620.00
2019-02-15T11:12:23.652Z,2716.00
2019-02-15T11:13:23.576Z,2788.00
2019-02-15T11:14:23.510Z,2648.00
2019-02-15T11:15:23.436Z,2656.00
2019-02-15T11:16:23.360Z,2728.00
2019-02-15T11:17:23.279Z,2776.00
2019-02-15T11:18:23.205Z,2824.00
2019-02-15T11:19:23.132Z,2808.00
2019-02-15T11:20:23.069Z,2928.00
2019-02-15T11:21:22.996Z,3120.00
2019-02-15T11:22:22.915Z,3084.00
2019-02-15T11:23:22.867Z,3004.00
2019-02-15T11:24:22.776Z,2948.00
2019-02-15T11:25:22.700Z,3016.00
2019-02-15T11:26:24.686Z,3104.00
2019-02-15T11:27:22.560Z,3196.00
2019-02-15T11:28:22.467Z,3156.00
2019-02-15T11:29:22.398Z,3156.00
2019-02-15T11:30:22.336Z,3244.00
2019-02-15T11:31:22.261Z,3316.00
2019-02-15T11:32:22.175Z,3400.00
2019-02-15T11:33:22.104Z,3400.00
2019-02-15T11:34:22.029Z,3492.00
2019-02-15T11:35:21.955Z,3464.00
2019-02-15T11:36:21.890Z,3464.00
2019-02-15T11:37:21.821Z,3488.00
2019-02-15T11:38:21.745Z,3484.00
2019-02-15T11:39:21.676Z,3552.00
2019-02-15T11:40:21.587Z,3644.00
2019-02-15T11:41:21.521Z,3676.00
2019-02-15T11:42:21.452Z,3840.00
2019-02-15T11:43:21.370Z,3948.00
2019-02-15T11:44:21.310Z,3516.00
2019-02-15T11:45:21.249Z,3312.00
2019-02-15T11:46:21.153Z,3288.00
2019-02-15T11:47:21.084Z,3240.00
2019-02-15T11:48:21.018Z,3372.00
2019-02-15T11:49:20.938Z,3136.00
2019-02-15T11:50:20.875Z,3264.00
2019-02-15T11:51:20.798Z,3180.00
2019-02-15T11:52:20.717Z,3304.00
2019-02-15T11:53:20.641Z,3460.00
2019-02-15T11:54:23.485Z,3724.00
2019-02-15T11:55:20.511Z,3460.00
2019-02-15T11:56:20.423Z,3376.00
2019-02-15T11:57:20.353Z,3016.00
2019-02-15T11:58:20.286Z,2868.00
2019-02-15T11:59:20.205Z,3060.00
2019-02-15T12:00:22.862Z,3076.00
2019-02-15T12:01:20.073Z,2860.00
2019-02-15T12:02:19.992Z,2488.00
2019-02-15T12:03:19.916Z,2456.00
2019-02-15T12:04:19.855Z,2628.00
2019-02-15T12:05:19.786Z,2524.00
2019-02-15T12:06:19.705Z,2832.00
2019-02-15T12:07:19.641Z,3064.00
2019-02-15T12:08:19.549Z,2948.00
2019-02-15T12:09:19.477Z,2408.00
2019-02-15T12:10:19.402Z,2096.00
2019-02-15T12:11:19.333Z,2836.00
2019-02-15T12:12:19.278Z,3332.00
2019-02-15T12:13:19.210Z,3008.00
2019-02-15T12:14:19.125Z,2988.00
2019-02-15T12:15:19.055Z,2184.00
2019-02-15T12:16:18.969Z,2288.00
2019-02-15T12:17:18.891Z,2308.00
2019-02-15T12:18:18.828Z,2612.00
2019-02-15T12:19:18.763Z,2756.00
2019-02-15T12:20:18.674Z,2696.00
2019-02-15T12:21:18.619Z,2760.00
2019-02-15T12:22:18.529Z,2736.00
2019-02-15T12:23:18.451Z,2720.00
2019-02-15T12:24:18.390Z,2688.00
2019-02-15T12:25:18.320Z,2604.00
2019-02-15T12:26:18.244Z,2580.00
2019-02-15T12:27:18.173Z,2488.00
2019-02-15T12:28:18.091Z,2548.00
2019-02-15T12:29:18.023Z,2524.00
2019-02-15T12:30:17.960Z,2536.00
2019-02-15T12:31:17.882Z,2444.00
2019-02-15T12:32:17.809Z,2444.00
2019-02-15T12:33:17.734Z,2312.00
2019-02-15T12:34:17.647Z,2384.00
2019-02-15T12:35:17.575Z,2396.00
2019-02-15T12:36:17.537Z,2392.00
2019-02-15T12:37:17.440Z,2396.00
2019-02-15T12:38:17.368Z,2356.00
2019-02-15T12:39:17.297Z,2344.00
2019-02-15T12:40:17.215Z,2292.00
2019-02-15T12:41:17.142Z,2304.00
2019-02-15T12:42:17.073Z,2320.00
2019-02-15T12:43:17.001Z,2332.00
2019-02-15T12:44:16.935Z,2336.00
2019-02-15T12:45:16.866Z,2316.00
2019-02-15T12:46:16.819Z,2280.00